Time;durP1;ratioP1;P1;durP2;ratioP2;P2;SDS_P1;SDS_P2;PMS_P1;PMS_P2;Temp;Humidity;BMP_temperature;BMP_pressure;BME280_temperature;BME280_humidity;BME280_pressure;Samples;Min_cycle;Max_cycle;Signal;HPM_P1;HPM_P2
2021/05/16 00:00:49;;;;;;;7.05;4.68;;;;;;;14.26;75.18;98652.47;5098236;28;20044;-47
2021/05/16 00:03:15;;;;;;;5.63;3.83;;;;;;;14.27;75.01;98651.56;5098920;28;20040;-47
2021/05/16 00:05:41;;;;;;;7.28;4.68;;;;;;;14.26;74.67;98653.31;5098763;28;20055;-47
2021/05/16 00:08:07;;;;;;;6.57;4.60;;;;;;;14.32;74.76;98657.38;5098803;28;20036;-46
2021/05/16 00:10:32;;;;;;;7.35;4.85;;;;;;;14.31;74.64;98649.59;5098745;28;20048;-46
2021/05/16 00:12:58;;;;;;;7.97;5.10;;;;;;;14.30;74.81;98655.78;5098622;28;20083;-46
2021/05/16 00:15:25;;;;;;;9.80;6.25;;;;;;;14.27;74.90;98647.13;5098891;28;20093;-46
2021/05/16 00:17:50;;;;;;;12.13;5.72;;;;;;;14.24;75.32;98643.84;5098832;28;20048;-46
2021/05/16 00:20:18;;;;;;;8.80;4.97;;;;;;;14.22;75.45;98635.16;5098414;28;20052;-46
2021/05/16 00:22:44;;;;;;;11.05;6.00;;;;;;;14.09;76.94;98624.50;5098451;28;20134;-47
2021/05/16 00:25:14;;;;;;;12.18;5.97;;;;;;;14.07;76.97;98625.50;5098738;28;20048;-47
2021/05/16 00:27:40;;;;;;;10.52;7.03;;;;;;;14.10;76.58;98634.09;5099001;28;20048;-46
2021/05/16 00:30:08;;;;;;;6.72;5.50;;;;;;;14.13;76.41;98633.06;5098834;28;20327;-47
2021/05/16 00:32:34;;;;;;;6.88;5.15;;;;;;;14.14;76.24;98624.25;5097687;28;20057;-47
2021/05/16 00:35:00;;;;;;;6.60;5.00;;;;;;;14.11;76.43;98621.78;5098202;28;20338;-47
2021/05/16 00:37:25;;;;;;;8.43;5.65;;;;;;;14.12;76.19;98623.47;5098460;28;20112;-46
2021/05/16 00:39:51;;;;;;;7.15;5.25;;;;;;;14.15;76.22;98618.03;5098012;28;20052;-46
2021/05/16 00:42:17;;;;;;;11.35;7.22;;;;;;;14.07;76.95;98617.63;5098314;28;20077;-47
2021/05/16 00:45:08;;;;;;;9.48;6.20;;;;;;;14.08;76.68;98609.66;5097546;28;20096;-47
2021/05/16 00:47:35;;;;;;;8.43;6.57;;;;;;;14.05;76.25;98609.81;5098309;28;20044;-46
2021/05/16 00:50:00;;;;;;;8.73;5.28;;;;;;;14.07;76.29;98612.34;5098193;28;20389;-47
2021/05/16 00:52:26;;;;;;;6.65;5.10;;;;;;;14.05;76.63;98606.34;5097326;28;20058;-46
2021/05/16 00:54:53;;;;;;;6.65;4.80;;;;;;;14.07;75.94;98609.72;5097853;28;20422;-46
2021/05/16 00:57:21;;;;;;;6.03;4.68;;;;;;;14.07;75.73;98601.81;5098039;28;20051;-47
2021/05/16 00:59:47;;;;;;;6.47;4.47;;;;;;;14.03;75.83;98595.88;5080334;28;20052;-46
2021/05/16 01:02:13;;;;;;;7.80;4.85;;;;;;;14.05;75.96;98601.09;5097401;28;20105;-47
2021/05/16 01:04:42;;;;;;;6.97;5.05;;;;;;;14.06;75.71;98606.25;5080280;28;20052;-47
2021/05/16 01:07:09;;;;;;;6.38;4.50;;;;;;;14.04;76.02;98605.50;5080350;28;20060;-46
2021/05/16 01:09:38;;;;;;;7.38;4.50;;;;;;;14.05;75.72;98609.81;5097506;28;20043;-46
2021/05/16 01:12:06;;;;;;;6.93;5.22;;;;;;;14.07;75.40;98607.09;5096881;28;20058;-46
2021/05/16 01:14:33;;;;;;;5.85;4.35;;;;;;;14.07;75.37;98604.44;5096661;28;20434;-46
2021/05/16 01:17:00;;;;;;;7.47;4.90;;;;;;;14.03;75.74;98603.78;5096566;28;20040;-47
2021/05/16 01:19:26;;;;;;;10.32;5.32;;;;;;;14.05;75.60;98599.28;5097258;28;20097;-47
2021/05/16 01:21:54;;;;;;;6.00;4.45;;;;;;;14.05;75.26;98604.56;5097512;28;20480;-47
2021/05/16 01:24:21;;;;;;;6.72;4.47;;;;;;;14.01;75.33;98603.91;5097293;28;20113;-46
2021/05/16 01:26:58;;;;;;;5.50;4.25;;;;;;;14.00;75.54;98607.44;5096349;28;20442;-47
2021/05/16 01:29:24;;;;;;;7.20;5.60;;;;;;;13.91;76.96;98594.84;5097168;28;20331;-47
2021/05/16 01:31:50;;;;;;;7.43;5.90;;;;;;;13.94;76.16;98605.19;5096527;28;20112;-46
2021/05/16 01:34:16;;;;;;;8.77;5.28;;;;;;;13.96;76.09;98603.28;5097118;28;20480;-46
2021/05/16 01:36:42;;;;;;;6.00;4.63;;;;;;;13.97;75.83;98604.13;5096711;28;20052;-47
2021/05/16 01:39:12;;;;;;;8.55;6.97;;;;;;;13.94;76.91;98599.94;5096297;28;20048;-47
2021/05/16 01:41:38;;;;;;;9.88;8.00;;;;;;;13.91;77.23;98593.97;5096655;28;20040;-47
2021/05/16 01:44:04;;;;;;;9.48;8.38;;;;;;;13.93;77.01;98598.22;5096298;28;20055;-46
2021/05/16 01:46:30;;;;;;;9.32;6.95;;;;;;;13.92;77.80;98599.16;5096865;28;20044;-46
2021/05/16 01:48:55;;;;;;;11.55;7.32;;;;;;;13.90;77.53;98590.50;5097147;28;20040;-46
2021/05/16 01:51:21;;;;;;;8.25;7.10;;;;;;;13.87;77.88;98584.56;5096751;28;20442;-46
2021/05/16 01:53:48;;;;;;;7.55;6.18;;;;;;;13.86;77.34;98578.44;5097186;28;20036;-46
2021/05/16 01:56:24;;;;;;;7.00;5.10;;;;;;;13.88;77.27;98586.28;5096974;28;20051;-47
2021/05/16 01:58:50;;;;;;;8.13;5.82;;;;;;;13.85;77.06;98583.81;5096973;28;20059;-46
2021/05/16 02:01:16;;;;;;;6.32;4.88;;;;;;;13.86;76.72;98593.41;5096785;28;20044;-46
2021/05/16 02:03:48;;;;;;;6.70;5.47;;;;;;;13.82;77.10;98589.25;5080182;28;20048;-46
2021/05/16 02:06:15;;;;;;;6.28;5.07;;;;;;;13.82;77.19;98582.19;5079019;28;20044;-46
2021/05/16 02:08:42;;;;;;;12.32;8.23;;;;;;;13.60;79.59;98579.94;5096763;28;20052;-46
2021/05/16 02:11:11;;;;;;;9.02;6.40;;;;;;;13.67;79.32;98588.34;5096742;28;20446;-46
2021/05/16 02:13:42;;;;;;;10.02;4.90;;;;;;;13.72;78.50;98588.94;5079626;28;20385;-46
2021/05/16 02:16:11;;;;;;;8.02;4.75;;;;;;;13.74;78.13;98584.41;5096620;28;20047;-46
2021/05/16 02:18:39;;;;;;;7.40;4.63;;;;;;;13.73;78.20;98586.19;5095525;28;20126;-46
2021/05/16 02:21:09;;;;;;;5.93;4.72;;;;;;;13.76;77.96;98595.72;5095277;28;20101;-46
2021/05/16 02:23:39;;;;;;;5.15;4.28;;;;;;;13.76;77.67;98586.03;5096262;28;20335;-46
2021/05/16 02:26:07;;;;;;;7.60;5.00;;;;;;;13.74;77.56;98585.25;5095501;28;20172;-46
2021/05/16 02:28:33;;;;;;;8.63;5.60;;;;;;;13.77;77.59;98590.34;5096156;28;20331;-46
2021/05/16 02:31:02;;;;;;;6.90;4.65;;;;;;;13.79;77.37;98585.00;5095336;28;20082;-46
2021/05/16 02:33:28;;;;;;;5.30;4.72;;;;;;;13.80;77.95;98578.81;5045816;28;20036;-46
2021/05/16 02:35:54;;;;;;;7.20;5.07;;;;;;;13.81;77.83;98588.38;5095533;28;20047;-46
2021/05/16 02:38:20;;;;;;;6.93;5.03;;;;;;;13.82;77.75;98584.00;5095671;28;20341;-46
2021/05/16 02:40:46;;;;;;;7.32;5.05;;;;;;;13.80;77.59;98591.97;5096315;28;20044;-46
2021/05/16 02:43:12;;;;;;;8.57;4.93;;;;;;;13.82;77.77;98589.25;5096342;28;20055;-46
2021/05/16 02:45:38;;;;;;;7.97;5.43;;;;;;;13.79;77.44;98587.63;5078341;28;20048;-46
2021/05/16 02:48:10;;;;;;;10.20;5.90;;;;;;;13.78;77.58;98593.84;5095186;28;20073;-46
2021/05/16 02:50:36;;;;;;;10.30;6.68;;;;;;;13.75;77.48;98586.97;5095096;28;20071;-46
2021/05/16 02:53:04;;;;;;;8.20;5.47;;;;;;;13.73;77.59;98578.31;5095413;28;20108;-46
2021/05/16 02:55:34;;;;;;;8.45;5.90;;;;;;;13.71;77.17;98588.06;5095414;28;20044;-46
2021/05/16 02:58:01;;;;;;;8.18;5.35;;;;;;;13.68;77.74;98587.38;5078767;28;20354;-46
2021/05/16 03:00:33;;;;;;;9.32;5.57;;;;;;;13.61;78.05;98562.38;5095056;28;20122;-47
2021/05/16 03:02:59;;;;;;;9.77;5.22;;;;;;;13.51;79.27;98556.78;5096130;28;20066;-47
2021/05/16 03:05:25;;;;;;;6.55;4.22;;;;;;;13.53;78.82;98563.66;5095275;28;20052;-47
2021/05/16 03:07:51;;;;;;;4.78;3.83;;;;;;;13.54;78.06;98567.97;5099174;28;20048;-46
2021/05/16 03:10:18;;;;;;;4.20;3.47;;;;;;;13.53;78.05;98570.72;5099267;28;20044;-46
2021/05/16 03:12:45;;;;;;;4.40;3.45;;;;;;;13.52;78.24;98569.88;5066553;28;20036;-46
2021/05/16 03:15:13;;;;;;;9.13;5.20;;;;;;;13.51;78.35;98573.41;5098897;28;20361;-46
2021/05/16 03:17:38;;;;;;;4.35;3.35;;;;;;;13.54;78.27;98575.03;5100022;28;20048;-46
2021/05/16 03:20:07;;;;;;;5.85;4.38;;;;;;;13.52;77.99;98561.97;5098557;28;20055;-46
2021/05/16 03:22:34;;;;;;;5.53;3.97;;;;;;;13.50;78.46;98555.94;5082127;28;20121;-46
2021/05/16 03:25:00;;;;;;;5.85;3.58;;;;;;;13.49;78.23;98556.03;5099899;28;20097;-46
2021/05/16 03:27:26;;;;;;;6.25;4.00;;;;;;;13.46;78.43;98551.81;5099793;28;20051;-46
2021/05/16 03:29:53;;;;;;;5.43;4.20;;;;;;;13.42;78.50;98544.16;5099518;28;20335;-46
2021/05/16 03:32:19;;;;;;;4.60;3.53;;;;;;;13.41;78.57;98545.94;5099727;28;20079;-46
2021/05/16 03:34:45;;;;;;;6.38;4.20;;;;;;;13.37;78.82;98546.22;5098830;28;20351;-45
2021/05/16 03:37:10;;;;;;;7.63;5.03;;;;;;;13.39;79.09;98544.31;5099629;28;20059;-46
2021/05/16 03:39:36;;;;;;;7.03;5.30;;;;;;;13.39;79.47;98545.19;5099533;28;20422;-45
2021/05/16 03:42:02;;;;;;;8.27;6.10;;;;;;;13.42;79.48;98547.66;5099683;28;20434;-46
2021/05/16 03:44:28;;;;;;;5.65;4.75;;;;;;;13.49;79.27;98551.63;5099471;28;20059;-46
2021/05/16 03:46:53;;;;;;;8.68;6.20;;;;;;;13.52;79.88;98540.09;5098577;28;20048;-46
2021/05/16 03:49:19;;;;;;;7.47;4.68;;;;;;;13.59;79.60;98540.59;5099421;28;20052;-46
2021/05/16 03:51:45;;;;;;;6.38;4.93;;;;;;;13.61;78.97;98539.53;5099420;28;20108;-46
2021/05/16 03:54:11;;;;;;;7.10;4.40;;;;;;;13.69;79.15;98544.38;5099320;28;20493;-46
2021/05/16 03:56:37;;;;;;;6.30;4.25;;;;;;;13.78;79.31;98538.59;5098968;28;20453;-46
2021/05/16 03:59:03;;;;;;;7.03;3.90;;;;;;;13.91;79.23;98538.69;5098981;28;20140;-46
2021/05/16 04:01:29;;;;;;;6.97;3.78;;;;;;;14.06;79.12;98543.06;5099103;28;20044;-46
2021/05/16 04:03:55;;;;;;;4.72;3.20;;;;;;;14.20;78.58;98547.50;5099141;28;20048;-46
2021/05/16 04:06:20;;;;;;;12.30;3.47;;;;;;;14.38;78.72;98546.41;5099075;28;20052;-46
2021/05/16 04:08:46;;;;;;;7.25;4.38;;;;;;;14.60;78.35;98553.03;5098181;28;20418;-46
2021/05/16 04:11:12;;;;;;;7.97;4.38;;;;;;;14.74;77.89;98560.94;5098994;28;20044;-46
2021/05/16 04:13:38;;;;;;;5.88;4.45;;;;;;;14.77;76.76;98552.00;5098970;28;20133;-46
2021/05/16 04:16:03;;;;;;;5.32;3.53;;;;;;;14.87;76.92;98559.22;5098921;28;20047;-46
2021/05/16 04:18:29;;;;;;;6.70;3.42;;;;;;;14.96;76.58;98556.03;5097440;28;20050;-46
2021/05/16 04:20:55;;;;;;;5.57;4.00;;;;;;;15.06;76.52;98563.38;5097595;28;20063;-46
2021/05/16 04:23:21;;;;;;;4.75;3.45;;;;;;;15.21;76.28;98551.84;5099108;28;20052;-46
2021/05/16 04:25:47;;;;;;;6.40;4.50;;;;;;;15.40;75.67;98559.41;5099013;28;20047;-46
2021/05/16 04:28:13;;;;;;;5.10;3.80;;;;;;;15.49;74.84;98555.34;5098674;28;20051;-46
2021/05/16 04:30:39;;;;;;;6.80;4.38;;;;;;;15.55;74.25;98554.94;5098379;28;20116;-46
2021/05/16 04:33:05;;;;;;;6.03;4.15;;;;;;;15.52;73.93;98558.63;5097389;28;20135;-46
2021/05/16 04:35:31;;;;;;;5.05;3.90;;;;;;;15.41;73.58;98556.69;5098316;28;20054;-46
2021/05/16 04:37:56;;;;;;;7.60;4.13;;;;;;;15.36;73.99;98557.94;5098134;28;20063;-46
2021/05/16 04:40:22;;;;;;;5.07;4.07;;;;;;;15.29;74.26;98557.47;5098367;28;20044;-46
2021/05/16 04:42:48;;;;;;;7.28;4.85;;;;;;;15.27;74.11;98554.06;5098430;28;20039;-46
2021/05/16 04:45:14;;;;;;;8.93;4.95;;;;;;;15.26;74.15;98557.66;5098349;28;20058;-46
2021/05/16 04:47:39;;;;;;;7.60;5.32;;;;;;;15.22;73.95;98547.41;5098065;28;20044;-47
2021/05/16 04:50:05;;;;;;;7.78;4.22;;;;;;;15.20;73.91;98544.88;5098006;28;20050;-46
2021/05/16 04:52:31;;;;;;;6.20;3.80;;;;;;;15.18;74.11;98547.63;5097033;28;20092;-46
2021/05/16 04:54:58;;;;;;;5.30;3.95;;;;;;;15.18;74.08;98544.13;5098022;28;20105;-46
2021/05/16 04:57:24;;;;;;;5.75;3.53;;;;;;;15.23;74.20;98544.66;5098124;28;20052;-46
2021/05/16 04:59:52;;;;;;;4.78;3.97;;;;;;;15.26;74.10;98538.38;5097627;28;20430;-46
2021/05/16 05:02:18;;;;;;;4.53;3.72;;;;;;;15.31;74.35;98533.66;5098009;28;20176;-46
2021/05/16 05:04:44;;;;;;;4.45;3.25;;;;;;;15.51;74.18;98530.56;5097700;28;20063;-46
2021/05/16 05:07:10;;;;;;;4.88;4.10;;;;;;;15.68;73.21;98526.84;5097909;28;20438;-46
2021/05/16 05:09:36;;;;;;;4.32;3.55;;;;;;;15.82;73.24;98526.75;5097912;28;20072;-46
2021/05/16 05:12:02;;;;;;;4.72;3.00;;;;;;;15.98;73.05;98521.28;5096927;28;20051;-46
2021/05/16 05:14:29;;;;;;;5.50;3.42;;;;;;;16.21;72.62;98522.38;5096612;28;20052;-46
2021/05/16 05:16:55;;;;;;;8.57;3.55;;;;;;;16.59;72.28;98526.81;5097764;28;20047;-47
2021/05/16 05:19:21;;;;;;;6.45;3.78;;;;;;;16.77;71.20;98528.22;5097373;28;20059;-47
2021/05/16 05:21:47;;;;;;;4.78;3.35;;;;;;;16.88;70.61;98534.53;5097669;28;20051;-46
2021/05/16 05:24:13;;;;;;;5.97;3.72;;;;;;;17.03;69.98;98533.44;5097262;28;20044;-47
2021/05/16 05:26:38;;;;;;;4.75;2.95;;;;;;;17.18;69.78;98536.78;5097309;28;20044;-47
2021/05/16 05:29:04;;;;;;;4.50;2.97;;;;;;;17.39;69.09;98529.09;5096989;28;20327;-47
2021/05/16 05:31:30;;;;;;;3.88;3.00;;;;;;;17.67;68.55;98530.53;5097178;28;20059;-47
2021/05/16 05:33:56;;;;;;;4.25;3.35;;;;;;;17.74;68.32;98537.94;5097164;28;20044;-47
2021/05/16 05:36:22;;;;;;;4.45;3.15;;;;;;;17.78;66.94;98535.94;5097671;28;20036;-47
2021/05/16 05:38:48;;;;;;;4.30;3.03;;;;;;;17.72;66.33;98539.84;5096195;28;20055;-47
2021/05/16 05:41:14;;;;;;;4.93;2.85;;;;;;;17.74;66.11;98535.28;5096992;28;20121;-47
2021/05/16 05:43:40;;;;;;;5.00;3.20;;;;;;;17.84;65.86;98537.25;5096371;28;20134;-47
2021/05/16 05:46:06;;;;;;;4.35;2.30;;;;;;;17.93;66.00;98542.69;5097161;28;20048;-47
2021/05/16 05:48:32;;;;;;;4.68;2.60;;;;;;;18.15;65.21;98549.03;5096314;28;20036;-47
2021/05/16 05:50:58;;;;;;;3.25;2.55;;;;;;;18.50;63.44;98543.69;5095915;28;20101;-47
2021/05/16 05:53:24;;;;;;;3.22;2.25;;;;;;;18.85;62.92;98546.28;5096843;28;20044;-47
2021/05/16 05:55:50;;;;;;;1.98;1.80;;;;;;;19.28;62.92;98555.28;5096930;28;20108;-47
2021/05/16 05:58:16;;;;;;;4.40;2.20;;;;;;;19.78;61.40;98545.84;5095875;28;20353;-47
2021/05/16 06:00:42;;;;;;;3.17;2.88;;;;;;;20.31;59.08;98553.81;5096898;28;20040;-47
2021/05/16 06:03:07;;;;;;;2.10;1.80;;;;;;;20.73;55.59;98552.94;5096030;28;20060;-47
2021/05/16 06:05:33;;;;;;;1.85;1.48;;;;;;;21.33;56.55;98567.16;5096843;28;20502;-47
2021/05/16 06:07:59;;;;;;;1.88;1.42;;;;;;;21.62;52.84;98567.25;5096809;28;20446;-47
2021/05/16 06:10:25;;;;;;;1.23;1.10;;;;;;;21.59;51.87;98570.19;5095899;28;20044;-47
2021/05/16 06:12:51;;;;;;;2.42;1.42;;;;;;;21.31;52.80;98574.44;5097057;28;20062;-47
2021/05/16 06:15:17;;;;;;;2.28;1.00;;;;;;;21.10;53.81;98579.84;5095572;28;20055;-47
2021/05/16 06:17:43;;;;;;;0.75;0.73;;;;;;;20.78;52.73;98585.31;5095566;28;20036;-47
2021/05/16 06:20:09;;;;;;;1.98;1.10;;;;;;;20.54;53.01;98581.13;5096278;28;20056;-47
2021/05/16 06:22:35;;;;;;;1.00;0.70;;;;;;;20.18;52.38;98585.06;5096640;28;20354;-47
2021/05/16 06:25:00;;;;;;;1.05;0.60;;;;;;;20.00;53.25;98589.25;5096859;28;20051;-47
2021/05/16 06:27:26;;;;;;;2.30;0.80;;;;;;;19.70;53.49;98589.97;5096324;28;20072;-47
2021/05/16 06:29:52;;;;;;;3.60;1.15;;;;;;;19.49;54.44;98584.53;5096339;28;20048;-47
2021/05/16 06:32:18;;;;;;;2.88;2.20;;;;;;;19.59;54.06;98588.97;5095068;28;20070;-47
2021/05/16 06:34:43;;;;;;;1.77;1.00;;;;;;;19.70;53.99;98588.16;5094521;28;20048;-47
2021/05/16 06:37:09;;;;;;;2.38;0.68;;;;;;;19.70;54.55;98593.47;5094153;28;20457;-47
2021/05/16 06:39:35;;;;;;;3.30;0.82;;;;;;;19.81;55.30;98589.91;5093406;28;20055;-47
2021/05/16 06:42:01;;;;;;;1.52;0.88;;;;;;;20.00;55.23;98599.88;5094431;28;20434;-47
2021/05/16 06:44:27;;;;;;;1.60;1.10;;;;;;;20.23;54.60;98592.63;5094767;28;20055;-47
2021/05/16 06:46:52;;;;;;;1.42;0.90;;;;;;;20.47;54.22;98587.91;5096316;28;20048;-47
2021/05/16 06:49:18;;;;;;;2.40;1.23;;;;;;;20.97;52.98;98584.56;5096068;28;20048;-47
2021/05/16 06:51:44;;;;;;;1.67;1.00;;;;;;;21.34;51.44;98592.81;5096310;28;20052;-47
2021/05/16 06:54:10;;;;;;;3.40;1.23;;;;;;;21.70;51.37;98595.84;5095891;28;20584;-47
2021/05/16 06:56:36;;;;;;;3.35;1.00;;;;;;;21.69;49.55;98594.19;5096180;28;20138;-47
2021/05/16 06:59:03;;;;;;;1.13;0.80;;;;;;;21.35;49.42;98593.66;5096141;28;20048;-47
2021/05/16 07:01:29;;;;;;;3.92;1.10;;;;;;;21.08;50.22;98602.25;5095812;28;20449;-47
2021/05/16 07:03:54;;;;;;;2.85;1.70;;;;;;;20.81;51.80;98600.16;5094076;28;20040;-47
2021/05/16 07:06:20;;;;;;;1.33;0.85;;;;;;;20.58;52.37;98607.47;5095550;28;20109;-47
2021/05/16 07:08:47;;;;;;;1.02;0.93;;;;;;;20.75;50.90;98602.38;5094952;28;20055;-47
2021/05/16 07:11:13;;;;;;;1.80;0.63;;;;;;;20.66;50.46;98595.16;5096087;28;20137;-47
2021/05/16 07:13:39;;;;;;;4.53;3.78;;;;;;;20.55;52.13;98605.91;5096084;28;20064;-47
2021/05/16 07:16:05;;;;;;;2.45;1.85;;;;;;;20.56;51.47;98602.25;5078115;28;20446;-47
2021/05/16 07:18:30;;;;;;;1.50;1.27;;;;;;;20.50;51.76;98602.75;5096366;28;20055;-47
2021/05/16 07:20:56;;;;;;;1.00;0.65;;;;;;;20.32;51.72;98597.19;5095537;28;20445;-47
2021/05/16 07:23:22;;;;;;;2.22;1.70;;;;;;;19.90;52.82;98602.44;5095788;28;20044;-47
2021/05/16 07:25:48;;;;;;;1.27;1.00;;;;;;;19.81;53.33;98613.81;5095868;28;20052;-47
2021/05/16 07:28:14;;;;;;;0.98;0.77;;;;;;;19.68;53.05;98599.84;5096204;28;20044;-47
2021/05/16 07:30:39;;;;;;;1.52;0.80;;;;;;;19.58;53.19;98591.75;5095113;28;20047;-47
2021/05/16 07:33:05;;;;;;;1.30;0.90;;;;;;;19.51;52.98;98604.69;5095889;28;20471;-47
2021/05/16 07:35:31;;;;;;;1.02;0.93;;;;;;;19.49;53.67;98601.31;5095587;28;20430;-47
2021/05/16 07:37:57;;;;;;;0.98;0.85;;;;;;;19.29;54.35;98588.81;5095982;28;20040;-47
2021/05/16 07:40:23;;;;;;;1.45;0.50;;;;;;;19.32;54.55;98600.00;5095545;28;20342;-47
2021/05/16 07:42:49;;;;;;;2.25;1.45;;;;;;;19.33;54.92;98599.03;5095511;28;20048;-47
2021/05/16 07:45:15;;;;;;;5.53;3.72;;;;;;;19.32;54.97;98604.47;5094721;28;20051;-47
2021/05/16 07:47:41;;;;;;;3.65;1.77;;;;;;;19.24;55.49;98607.75;5095744;28;20048;-47
2021/05/16 07:50:07;;;;;;;2.90;1.90;;;;;;;19.15;56.08;98601.38;5078423;28;20123;-47
2021/05/16 07:52:33;;;;;;;3.90;2.83;;;;;;;19.12;55.97;98592.81;5095978;28;20043;-47
2021/05/16 07:54:59;;;;;;;1.90;1.50;;;;;;;19.05;56.08;98597.75;5099331;28;20052;-47
2021/05/16 07:57:25;;;;;;;2.20;0.80;;;;;;;19.01;56.57;98598.97;5099351;28;20368;-47
2021/05/16 07:59:50;;;;;;;1.52;0.90;;;;;;;19.01;55.58;98604.28;5098336;28;20044;-47
2021/05/16 08:02:17;;;;;;;1.35;0.93;;;;;;;18.91;55.73;98606.81;5098995;28;20055;-47
2021/05/16 08:04:43;;;;;;;1.30;1.10;;;;;;;18.87;55.40;98605.34;5099149;28;20350;-47
2021/05/16 08:07:09;;;;;;;1.77;0.80;;;;;;;18.81;55.27;98602.31;5098811;28;20120;-47
2021/05/16 08:09:35;;;;;;;1.02;0.93;;;;;;;18.72;54.61;98608.28;5098800;28;20135;-47
2021/05/16 08:12:01;;;;;;;1.33;0.90;;;;;;;18.69;55.10;98604.94;5099252;28;20066;-47
2021/05/16 08:14:28;;;;;;;1.33;0.88;;;;;;;18.72;54.93;98606.53;5099029;28;20077;-47
2021/05/16 08:16:54;;;;;;;1.65;1.00;;;;;;;18.74;54.99;98614.38;5099195;28;20123;-47
2021/05/16 08:19:20;;;;;;;0.60;0.50;;;;;;;18.77;54.49;98609.66;5098313;28;20052;-47
2021/05/16 08:21:46;;;;;;;0.77;0.35;;;;;;;18.81;54.62;98616.41;5098650;28;20111;-47
2021/05/16 08:24:13;;;;;;;1.08;0.47;;;;;;;18.88;54.35;98619.44;5098475;28;20464;-47
2021/05/16 08:26:38;;;;;;;1.45;1.00;;;;;;;18.90;54.52;98615.72;5098775;28;20044;-47
2021/05/16 08:29:05;;;;;;;2.33;1.20;;;;;;;18.91;54.27;98625.38;5098982;28;20433;-47
2021/05/16 08:31:35;;;;;;;1.23;0.40;;;;;;;18.92;53.54;98626.22;5098646;28;20044;-47
2021/05/16 08:34:07;;;;;;;1.52;0.60;;;;;;;18.84;52.75;98625.94;5098601;28;20342;-47
2021/05/16 08:36:37;;;;;;;1.02;0.80;;;;;;;18.85;52.55;98631.16;5080881;28;20048;-47
2021/05/16 08:39:04;;;;;;;0.85;0.50;;;;;;;18.91;52.82;98630.69;5098199;28;20048;-47
2021/05/16 08:41:32;;;;;;;0.60;0.50;;;;;;;18.96;53.44;98632.97;5098759;28;20077;-47
2021/05/16 08:43:57;;;;;;;0.98;0.52;;;;;;;19.01;53.27;98635.25;5098418;28;20123;-47
2021/05/16 08:46:23;;;;;;;0.82;0.30;;;;;;;18.99;53.66;98629.22;5097491;28;20430;-47
2021/05/16 08:48:49;;;;;;;0.80;0.60;;;;;;;18.94;52.90;98616.31;5080910;28;20511;-47
2021/05/16 08:51:15;;;;;;;0.70;0.43;;;;;;;18.90;53.46;98634.28;5097402;28;20362;-47
2021/05/16 08:53:42;;;;;;;1.25;0.60;;;;;;;18.84;53.89;98636.56;5097883;28;20458;-47
2021/05/16 08:56:07;;;;;;;0.70;0.68;;;;;;;18.91;53.66;98640.41;5097921;28;20040;-47
2021/05/16 08:58:33;;;;;;;1.67;0.93;;;;;;;18.94;53.04;98640.19;5097873;28;20055;-47
2021/05/16 09:00:59;;;;;;;1.20;0.95;;;;;;;18.85;53.43;98647.06;5097695;28;20231;-47
2021/05/16 09:03:25;;;;;;;1.10;0.60;;;;;;;18.80;53.37;98653.69;5098236;28;20108;-47
2021/05/16 09:05:52;;;;;;;1.17;0.60;;;;;;;18.55;53.76;98644.91;5097205;28;20051;-47
2021/05/16 09:08:21;;;;;;;0.85;0.63;;;;;;;18.61;53.60;98651.56;5097005;28;20055;-47
2021/05/16 09:10:58;;;;;;;4.65;3.15;;;;;;;18.53;54.07;98646.00;5097006;28;20059;-47
2021/05/16 09:13:30;;;;;;;0.82;0.60;;;;;;;18.52;54.06;98660.19;5081027;28;20048;-47
2021/05/16 09:16:13;;;;;;;1.60;0.63;;;;;;;18.41;54.14;98655.72;5097099;28;20333;-47
2021/05/16 09:18:43;;;;;;;1.60;0.70;;;;;;;18.30;54.99;98650.41;5096703;28;20040;-47
2021/05/16 09:21:23;;;;;;;1.25;0.68;;;;;;;18.32;55.29;98654.59;5098055;28;20048;-47
2021/05/16 09:24:07;;;;;;;0.95;0.82;;;;;;;18.25;54.94;98661.31;5097657;28;20056;-47
2021/05/16 09:26:37;;;;;;;1.80;1.33;;;;;;;18.19;55.20;98659.97;5096561;28;20073;-47
2021/05/16 09:29:40;;;;;;;1.42;0.68;;;;;;;18.24;54.33;98646.41;5080745;28;20055;-47
2021/05/16 09:32:08;;;;;;;3.72;1.85;;;;;;;18.12;55.28;98655.25;5096666;28;20130;-47
2021/05/16 09:34:34;;;;;;;9.13;5.45;;;;;;;18.14;54.68;98658.63;5097198;28;20089;-47
2021/05/16 09:37:00;;;;;;;18.30;11.50;;;;;;;18.18;54.69;98654.78;5096409;28;20052;-47
2021/05/16 09:39:28;;;;;;;9.75;6.45;;;;;;;18.19;55.12;98654.66;5096968;28;20052;-47
2021/05/16 09:41:56;;;;;;;6.88;3.83;;;;;;;18.29;55.92;98657.47;5096952;28;20453;-47
2021/05/16 09:44:38;;;;;;;2.13;1.30;;;;;;;18.48;56.02;98664.06;5097516;28;20059;-47
2021/05/16 09:47:23;;;;;;;1.90;0.60;;;;;;;18.60;55.77;98665.78;5096379;28;20052;-47
2021/05/16 09:49:56;;;;;;;2.78;1.90;;;;;;;18.66;54.94;98658.22;5098015;28;20047;-47
2021/05/16 09:52:30;;;;;;;2.17;1.00;;;;;;;18.87;54.56;98671.66;5097177;28;20349;-47
2021/05/16 09:55:01;;;;;;;1.52;0.90;;;;;;;18.96;54.45;98670.09;5097087;28;20040;-47
2021/05/16 09:57:34;;;;;;;1.10;1.00;;;;;;;19.08;53.87;98671.81;5096701;28;20327;-46
2021/05/16 10:00:00;;;;;;;2.85;1.13;;;;;;;19.15;53.64;98677.47;5096880;28;20058;-46
2021/05/16 10:02:28;;;;;;;2.03;1.30;;;;;;;19.30;53.05;98678.94;5096074;28;20445;-46
2021/05/16 10:05:00;;;;;;;1.95;1.17;;;;;;;19.38;52.44;98671.19;5096013;28;20052;-46
2021/05/16 10:07:26;;;;;;;3.10;1.40;;;;;;;19.41;52.11;98677.25;5096947;28;20055;-46
2021/05/16 10:09:52;;;;;;;1.10;0.80;;;;;;;19.45;52.49;98676.88;5097141;28;20338;-46
2021/05/16 10:12:18;;;;;;;2.17;1.27;;;;;;;19.54;52.08;98676.16;5095892;28;20055;-46
2021/05/16 10:14:46;;;;;;;17.20;9.07;;;;;;;19.68;49.30;98664.44;5096724;28;20131;-46
2021/05/16 10:17:13;;;;;;;6.97;4.22;;;;;;;19.62;49.41;98673.69;5094943;28;20054;-46
2021/05/16 10:19:39;;;;;;;1.83;0.95;;;;;;;19.79;48.47;98685.69;5095303;28;20054;-46
2021/05/16 10:22:09;;;;;;;0.90;0.57;;;;;;;19.82;48.99;98684.56;5079075;28;20111;-46
2021/05/16 10:24:37;;;;;;;0.75;0.30;;;;;;;19.84;48.32;98690.63;5096287;28;20047;-46
2021/05/16 10:27:23;;;;;;;1.15;0.43;;;;;;;19.94;46.79;98690.72;5096541;28;20043;-46
2021/05/16 10:29:59;;;;;;;0.93;0.45;;;;;;;19.89;48.13;98691.09;5096875;28;20047;-46
2021/05/16 10:32:39;;;;;;;0.43;0.32;;;;;;;19.97;47.55;98686.00;5096032;28;20040;-46
2021/05/16 10:35:05;;;;;;;2.55;0.77;;;;;;;19.96;47.92;98692.28;5095371;28;20119;-46
2021/05/16 10:37:43;;;;;;;1.38;0.80;;;;;;;20.05;47.87;98680.91;5096723;28;20052;-46
2021/05/16 10:40:11;;;;;;;4.30;1.80;;;;;;;20.23;47.50;98688.34;5096343;28;20048;-46
2021/05/16 10:42:38;;;;;;;1.13;0.57;;;;;;;20.27;46.85;98687.09;5096061;28;20059;-46
2021/05/16 10:45:12;;;;;;;1.60;0.88;;;;;;;20.28;46.41;98691.47;5096123;28;20064;-46
2021/05/16 10:47:41;;;;;;;2.75;0.22;;;;;;;20.24;46.34;98692.66;5096413;28;20051;-46
2021/05/16 10:50:19;;;;;;;0.80;0.28;;;;;;;20.12;46.25;98689.22;5095979;28;20358;-46
2021/05/16 10:53:08;;;;;;;2.78;0.38;;;;;;;20.18;46.22;98687.84;5096116;28;20323;-46
2021/05/16 10:56:13;;;;;;;1.58;0.20;;;;;;;20.19;47.04;98687.75;5096372;28;20047;-53
2021/05/16 10:58:43;;;;;;;0.90;0.50;;;;;;;20.18;46.05;98687.84;5096068;28;20377;-52
2021/05/16 11:01:11;;;;;;;0.20;0.10;;;;;;;20.11;46.24;98665.41;5078578;28;20060;-53
2021/05/16 11:03:42;;;;;;;0.50;0.30;;;;;;;20.22;45.58;98678.69;5095626;28;20109;-53
2021/05/16 11:06:08;;;;;;;0.77;0.30;;;;;;;20.07;46.08;98678.94;5095919;28;20094;-52
2021/05/16 11:08:33;;;;;;;0.73;0.17;;;;;;;19.94;46.28;98677.44;5095938;28;20040;-53
2021/05/16 11:11:00;;;;;;;0.70;0.40;;;;;;;19.89;46.08;98684.91;5096117;28;20048;-52
2021/05/16 11:13:31;;;;;;;0.88;0.30;;;;;;;19.86;46.47;98683.38;5096188;28;20369;-52
2021/05/16 11:16:05;;;;;;;0.45;0.32;;;;;;;19.83;46.54;98691.59;5094977;28;20112;-52
2021/05/16 11:18:32;;;;;;;2.35;0.30;;;;;;;19.84;45.90;98682.63;5095190;28;20430;-53
2021/05/16 11:21:03;;;;;;;1.77;1.67;;;;;;;19.81;45.54;98686.38;5095891;28;20458;-52
2021/05/16 11:23:29;;;;;;;5.10;4.00;;;;;;;19.83;45.88;98671.19;5095714;28;20442;-52
2021/05/16 11:26:03;;;;;;;8.93;4.40;;;;;;;19.93;45.83;98671.28;5095777;28;20063;-53
2021/05/16 11:28:39;;;;;;;2.75;1.88;;;;;;;19.95;45.52;98673.78;5063953;28;20040;-52
2021/05/16 11:31:17;;;;;;;2.53;1.50;;;;;;;20.19;45.36;98678.94;5099379;28;20117;-52
2021/05/16 11:33:43;;;;;;;0.98;0.80;;;;;;;20.29;44.85;98664.75;5098701;28;20036;-52
2021/05/16 11:36:14;;;;;;;1.45;0.52;;;;;;;20.44;43.72;98657.31;5099757;28;20130;-52